createdAt,value
2022-11-25T00:01:04.619Z,5.00
2022-11-25T00:04:07.717Z,5.00
2022-11-25T00:07:10.881Z,5.00
2022-11-25T00:10:15.378Z,5.00
2022-11-25T00:13:18.496Z,5.10
2022-11-25T00:16:23.233Z,5.00
2022-11-25T00:19:26.373Z,5.00
2022-11-25T00:22:29.495Z,5.00
2022-11-25T00:25:34.129Z,4.90
2022-11-25T00:28:37.808Z,4.90
2022-11-25T00:31:41.840Z,4.90
2022-11-25T00:34:45.037Z,4.90
2022-11-25T00:37:48.215Z,4.90
2022-11-25T00:41:15.884Z,4.80
2022-11-25T00:44:38.847Z,4.90
2022-11-25T00:47:42.546Z,4.80
2022-11-25T00:50:45.655Z,4.80
2022-11-25T00:53:48.733Z,4.80
2022-11-25T00:56:53.749Z,4.80
2022-11-25T00:59:57.051Z,4.80
2022-11-25T01:03:00.169Z,4.80
2022-11-25T01:06:03.592Z,4.70
2022-11-25T01:09:08.097Z,4.70
2022-11-25T01:12:12.736Z,4.70
2022-11-25T01:15:15.937Z,4.60
2022-11-25T01:18:19.058Z,4.70
2022-11-25T01:21:24.127Z,4.60
2022-11-25T01:24:27.504Z,4.50
2022-11-25T01:27:32.027Z,4.50
2022-11-25T01:30:40.900Z,4.50
2022-11-25T01:33:45.634Z,4.40
2022-11-25T01:36:49.174Z,4.20
2022-11-25T01:39:52.270Z,4.30
2022-11-25T01:42:56.842Z,4.30
2022-11-25T01:46:07.067Z,4.30
2022-11-25T01:49:16.363Z,4.20
2022-11-25T01:52:23.401Z,4.20
2022-11-25T01:55:30.856Z,4.20
2022-11-25T01:58:38.876Z,4.20
2022-11-25T02:01:42.067Z,4.20
2022-11-25T02:04:47.807Z,4.10
2022-11-25T02:07:52.544Z,4.20
2022-11-25T02:10:56.875Z,4.10
2022-11-25T02:14:01.768Z,4.10
2022-11-25T02:17:05.001Z,3.90
2022-11-25T02:20:10.133Z,3.90
2022-11-25T02:23:22.282Z,3.90
2022-11-25T02:26:26.794Z,3.90
2022-11-25T02:29:30.201Z,3.80
2022-11-25T02:32:33.305Z,3.80
2022-11-25T02:35:38.167Z,3.90
2022-11-25T02:38:46.834Z,3.90
2022-11-25T02:41:56.866Z,3.80
2022-11-25T02:44:59.949Z,3.80
2022-11-25T02:48:03.067Z,3.70
2022-11-25T02:51:06.854Z,3.70
2022-11-25T02:54:10.241Z,3.70
2022-11-25T02:57:14.702Z,3.80
2022-11-25T03:00:19.343Z,3.70
2022-11-25T03:03:22.713Z,3.70
2022-11-25T03:06:25.842Z,3.70
2022-11-25T03:09:29.020Z,3.80
2022-11-25T03:12:33.539Z,3.70
2022-11-25T03:15:37.101Z,3.70
2022-11-25T03:18:40.215Z,3.70
2022-11-25T03:21:43.293Z,3.70
2022-11-25T03:24:46.384Z,3.70
2022-11-25T03:27:50.912Z,3.70
2022-11-25T03:30:54.005Z,3.70
2022-11-25T03:33:57.227Z,3.80
2022-11-25T03:37:00.365Z,3.70
2022-11-25T03:40:03.922Z,3.70
2022-11-25T03:43:08.381Z,3.80
2022-11-25T03:46:11.539Z,3.70
2022-11-25T03:49:14.710Z,3.70
2022-11-25T03:52:17.878Z,3.70
2022-11-25T03:55:21.100Z,3.60
2022-11-25T03:58:25.579Z,3.60
2022-11-25T04:01:28.780Z,3.60
2022-11-25T04:04:32.208Z,3.60
2022-11-25T04:07:35.348Z,3.60
2022-11-25T04:10:38.517Z,3.60
2022-11-25T04:13:42.046Z,3.60
2022-11-25T04:16:45.269Z,3.60
2022-11-25T04:19:48.541Z,3.60
2022-11-25T04:22:51.637Z,3.50
2022-11-25T04:25:54.772Z,3.50
2022-11-25T04:28:59.250Z,3.40
2022-11-25T04:32:02.331Z,3.40
2022-11-25T04:35:06.095Z,3.40
2022-11-25T04:38:09.200Z,3.40
2022-11-25T04:41:12.317Z,3.40
2022-11-25T04:44:16.782Z,3.40
2022-11-25T04:47:19.871Z,3.50
2022-11-25T04:50:24.753Z,3.40
2022-11-25T04:53:27.870Z,3.50
2022-11-25T04:56:31.023Z,3.40
2022-11-25T04:59:41.404Z,3.40
2022-11-25T05:02:44.643Z,3.40
2022-11-25T05:05:47.778Z,3.40
2022-11-25T05:08:51.493Z,3.40
2022-11-25T05:11:54.611Z,3.40
2022-11-25T05:14:59.436Z,3.40
2022-11-25T05:18:02.521Z,3.30
2022-11-25T05:21:07.573Z,3.30
2022-11-25T05:24:11.017Z,3.20
2022-11-25T05:27:14.890Z,3.10
2022-11-25T05:30:19.583Z,3.00
2022-11-25T05:33:22.957Z,3.00
2022-11-25T05:36:26.101Z,3.10
2022-11-25T05:39:29.208Z,3.10
2022-11-25T05:42:32.297Z,3.10
2022-11-25T05:45:39.293Z,2.90
2022-11-25T05:48:42.482Z,2.80
2022-11-25T05:51:46.027Z,2.80
2022-11-25T05:54:51.261Z,2.80
2022-11-25T05:57:59.537Z,2.70
2022-11-25T06:01:08.216Z,2.70
2022-11-25T06:04:11.648Z,2.80
2022-11-25T06:07:14.811Z,2.90
2022-11-25T06:10:18.273Z,2.90
2022-11-25T06:13:21.991Z,2.90
2022-11-25T06:16:26.803Z,3.00
2022-11-25T06:19:30.015Z,3.00
2022-11-25T06:22:33.103Z,3.00
2022-11-25T06:25:36.598Z,3.00
2022-11-25T06:28:39.711Z,2.80
2022-11-25T06:31:44.285Z,2.70
2022-11-25T06:34:47.419Z,2.80
2022-11-25T06:37:50.537Z,2.90
2022-11-25T06:40:56.396Z,2.90
2022-11-25T06:44:02.225Z,2.90
2022-11-25T06:47:06.787Z,2.90
2022-11-25T06:50:10.170Z,2.90
2022-11-25T06:53:13.260Z,3.00
2022-11-25T06:56:18.130Z,3.10
2022-11-25T06:59:22.060Z,3.20
2022-11-25T07:02:26.802Z,3.30
2022-11-25T07:05:29.990Z,3.40
2022-11-25T07:08:34.352Z,3.40
2022-11-25T07:11:40.617Z,3.40
2022-11-25T07:14:43.772Z,3.40
2022-11-25T07:17:48.256Z,3.30
2022-11-25T07:20:51.404Z,3.50
2022-11-25T07:23:54.588Z,3.60
2022-11-25T07:26:58.085Z,3.50
2022-11-25T07:30:41.542Z,3.70
2022-11-25T07:33:25.764Z,3.80
2022-11-25T07:36:29.955Z,4.00
2022-11-25T07:39:33.138Z,4.10
2022-11-25T07:42:36.299Z,4.20
2022-11-25T07:45:39.413Z,4.40
2022-11-25T07:48:45.733Z,4.50
2022-11-25T07:51:51.435Z,4.70
2022-11-25T07:54:54.765Z,4.90
2022-11-25T07:57:57.851Z,5.20
2022-11-25T08:01:03.640Z,5.30
2022-11-25T08:04:08.960Z,5.50
2022-11-25T08:07:12.288Z,5.60
2022-11-25T08:10:15.870Z,5.80
2022-11-25T08:13:19.002Z,6.00
2022-11-25T08:16:27.780Z,6.30
2022-11-25T08:19:32.394Z,6.50
2022-11-25T08:22:35.551Z,6.70
2022-11-25T08:25:43.022Z,6.90
2022-11-25T08:28:49.384Z,7.10
2022-11-25T08:31:52.562Z,7.30
2022-11-25T08:34:57.126Z,7.40
2022-11-25T08:38:00.245Z,7.50
2022-11-25T08:41:03.685Z,7.70
2022-11-25T08:44:09.878Z,7.80
2022-11-25T08:47:12.971Z,7.90
2022-11-25T08:50:17.928Z,8.00
2022-11-25T08:53:21.831Z,8.00
2022-11-25T08:56:26.550Z,8.00
2022-11-25T08:59:29.768Z,7.90
2022-11-25T09:02:33.019Z,7.90
2022-11-25T09:05:41.974Z,8.00
2022-11-25T09:08:45.752Z,7.90
2022-11-25T09:11:49.011Z,7.90
2022-11-25T09:14:52.155Z,7.80
2022-11-25T09:18:00.671Z,7.70
2022-11-25T09:21:09.795Z,7.70
2022-11-25T09:24:13.068Z,7.70
2022-11-25T09:27:16.245Z,7.70
2022-11-25T09:30:19.623Z,7.70
2022-11-25T09:33:22.729Z,7.60
2022-11-25T09:36:27.361Z,7.60
2022-11-25T09:39:31.072Z,7.60
2022-11-25T09:43:03.908Z,7.70
2022-11-25T09:46:33.048Z,7.70
2022-11-25T09:49:56.524Z,7.70
2022-11-25T09:53:09.677Z,7.80
2022-11-25T09:56:22.055Z,7.80
2022-11-25T09:59:31.829Z,8.00
2022-11-25T10:02:40.750Z,8.00
2022-11-25T10:05:48.534Z,8.10
2022-11-25T10:08:56.515Z,8.30
2022-11-25T10:12:04.615Z,8.40
2022-11-25T10:15:14.314Z,8.50
2022-11-25T10:18:24.239Z,8.80
2022-11-25T10:21:28.138Z,8.90
2022-11-25T10:24:34.967Z,9.10
2022-11-25T10:27:46.980Z,9.30
2022-11-25T10:30:53.925Z,9.40
2022-11-25T10:34:00.167Z,9.50
2022-11-25T10:37:06.812Z,9.60
2022-11-25T10:40:16.211Z,9.60
2022-11-25T10:43:19.744Z,10.20
2022-11-25T10:46:56.870Z,11.10
2022-11-25T10:50:09.623Z,11.60
2022-11-25T10:53:15.918Z,11.70
2022-11-25T10:56:20.714Z,11.70
2022-11-25T10:59:30.085Z,12.70
2022-11-25T11:02:40.949Z,17.20
2022-11-25T11:05:49.202Z,21.70
2022-11-25T11:08:52.397Z,25.00
2022-11-25T11:11:56.921Z,28.00
2022-11-25T11:15:24.268Z,30.20
2022-11-25T11:18:31.362Z,32.50
2022-11-25T11:21:36.514Z,33.10
2022-11-25T11:24:41.871Z,34.50
2022-11-25T11:27:46.893Z,34.40
2022-11-25T11:30:57.759Z,35.40
2022-11-25T11:34:15.242Z,36.10
2022-11-25T11:37:37.849Z,35.20
2022-11-25T11:40:44.823Z,34.70
2022-11-25T11:44:02.509Z,35.60
2022-11-25T11:47:18.717Z,36.60
2022-11-25T11:50:28.551Z,36.90
2022-11-25T11:53:38.031Z,36.00
2022-11-25T11:56:45.284Z,36.90
2022-11-25T11:59:53.454Z,36.10
2022-11-25T12:03:05.280Z,34.80
2022-11-25T12:06:12.009Z,34.90
2022-11-25T12:09:20.986Z,33.10
2022-11-25T12:12:33.716Z,33.80
2022-11-25T12:15:45.263Z,35.40
2022-11-25T12:18:53.531Z,36.00
2022-11-25T12:22:01.728Z,35.80
2022-11-25T12:25:11.978Z,36.50
2022-11-25T12:28:19.740Z,36.00
2022-11-25T12:31:30.206Z,36.30
2022-11-25T12:34:41.099Z,36.60
2022-11-25T12:37:48.927Z,36.20
2022-11-25T12:41:00.794Z,36.90
2022-11-25T12:44:11.217Z,37.10
2022-11-25T12:47:15.742Z,36.20
2022-11-25T12:50:24.550Z,37.10
2022-11-25T12:53:40.375Z,37.30
2022-11-25T12:57:01.714Z,36.50
2022-11-25T13:00:44.391Z,35.30
2022-11-25T13:04:04.626Z,35.60
2022-11-25T13:07:27.975Z,35.70
2022-11-25T13:11:06.006Z,36.30
2022-11-25T13:14:20.535Z,36.90
2022-11-25T13:17:25.371Z,37.00
2022-11-25T13:20:51.612Z,37.00
2022-11-25T13:23:57.330Z,37.00
2022-11-25T13:27:01.939Z,36.90
2022-11-25T13:30:25.591Z,36.60
2022-11-25T13:34:00.451Z,34.80
2022-11-25T13:37:24.181Z,32.20
2022-11-25T13:40:39.709Z,30.60
2022-11-25T13:44:01.177Z,29.10
2022-11-25T13:47:30.730Z,27.40
2022-11-25T13:50:55.427Z,24.80
2022-11-25T13:54:01.230Z,22.70
2022-11-25T13:57:31.200Z,20.80
2022-11-25T14:00:49.600Z,20.00
2022-11-25T14:04:00.425Z,19.60
2022-11-25T14:07:15.716Z,19.40
2022-11-25T14:10:34.969Z,18.70
2022-11-25T14:13:56.102Z,18.30
2022-11-25T14:17:15.640Z,17.80
2022-11-25T14:20:38.374Z,17.30
2022-11-25T14:24:13.668Z,16.80
2022-11-25T14:27:19.367Z,16.10
2022-11-25T14:30:24.803Z,15.60
2022-11-25T14:33:34.352Z,15.00
2022-11-25T14:36:41.982Z,14.50
2022-11-25T14:39:51.015Z,14.00
2022-11-25T14:42:59.595Z,13.60
2022-11-25T14:46:15.735Z,13.30
2022-11-25T14:49:44.934Z,12.90
2022-11-25T14:52:44.004Z,12.60
2022-11-25T14:55:49.901Z,12.30
2022-11-25T14:58:55.214Z,12.10
2022-11-25T15:01:59.746Z,11.80
2022-11-25T15:05:09.322Z,11.60
2022-11-25T15:08:17.878Z,11.50
2022-11-25T15:11:24.103Z,11.30
2022-11-25T15:14:29.095Z,11.20
2022-11-25T15:17:37.436Z,11.10
2022-11-25T15:20:40.626Z,11.00
2022-11-25T15:23:43.957Z,10.90
2022-11-25T15:26:52.835Z,10.80
2022-11-25T15:29:57.771Z,10.70
2022-11-25T15:33:03.644Z,10.60
2022-11-25T15:36:07.414Z,10.50
2022-11-25T15:39:27.391Z,10.50
2022-11-25T15:42:30.546Z,10.30
2022-11-25T15:45:38.232Z,10.20
2022-11-25T15:48:46.398Z,10.10
2022-11-25T15:51:54.089Z,10.00
2022-11-25T15:55:03.072Z,9.90
2022-11-25T15:58:13.558Z,9.70
2022-11-25T16:01:23.211Z,9.60
2022-11-25T16:04:27.933Z,9.50
2022-11-25T16:07:31.069Z,9.40
2022-11-25T16:10:47.272Z,9.30
2022-11-25T16:13:51.461Z,9.30
2022-11-25T16:17:00.352Z,9.20
2022-11-25T16:20:05.464Z,9.10
2022-11-25T16:23:09.100Z,9.00
2022-11-25T16:26:18.370Z,9.00
2022-11-25T16:29:26.883Z,8.90
2022-11-25T16:32:32.149Z,8.80
2022-11-25T16:35:38.884Z,8.80
2022-11-25T16:38:42.728Z,8.80
2022-11-25T16:41:56.165Z,8.80
2022-11-25T16:45:02.545Z,8.80
2022-11-25T16:48:17.164Z,8.80
2022-11-25T16:51:24.080Z,8.80
2022-11-25T16:54:27.574Z,8.80
2022-11-25T16:57:31.028Z,8.70
2022-11-25T17:00:35.007Z,8.70
2022-11-25T17:03:38.197Z,8.70
2022-11-25T17:06:54.112Z,8.70
2022-11-25T17:10:09.627Z,8.70
2022-11-25T17:13:19.836Z,8.70
2022-11-25T17:16:25.189Z,8.60
2022-11-25T17:19:29.491Z,8.60
2022-11-25T17:22:39.369Z,8.60
2022-11-25T17:25:44.737Z,8.50
2022-11-25T17:28:54.907Z,8.50
2022-11-25T17:31:59.116Z,8.50
2022-11-25T17:35:02.781Z,8.40
2022-11-25T17:38:14.623Z,8.40
2022-11-25T17:41:20.847Z,8.40
2022-11-25T17:44:26.816Z,8.30
2022-11-25T17:47:30.327Z,8.30
2022-11-25T17:50:36.233Z,8.30
2022-11-25T17:53:42.523Z,8.30
2022-11-25T17:56:52.558Z,8.30
2022-11-25T17:59:57.179Z,8.30
2022-11-25T18:03:04.150Z,8.20
2022-11-25T18:06:08.763Z,8.30
2022-11-25T18:09:13.715Z,8.30
2022-11-25T18:12:20.821Z,8.30
2022-11-25T18:15:26.608Z,8.30
2022-11-25T18:18:30.285Z,8.30
2022-11-25T18:21:34.303Z,8.20
2022-11-25T18:24:39.579Z,8.20
2022-11-25T18:27:44.787Z,8.20
2022-11-25T18:30:50.052Z,8.10
2022-11-25T18:33:56.651Z,8.20
2022-11-25T18:37:01.585Z,8.10
2022-11-25T18:40:07.872Z,8.10
2022-11-25T18:43:18.377Z,8.10
2022-11-25T18:46:22.895Z,8.10
2022-11-25T18:49:29.630Z,8.00
2022-11-25T18:52:34.390Z,8.00
2022-11-25T18:55:40.606Z,7.90
2022-11-25T18:58:47.835Z,7.90
2022-11-25T19:01:52.020Z,7.90
2022-11-25T19:04:58.676Z,7.90
2022-11-25T19:08:03.351Z,7.90
2022-11-25T19:11:16.865Z,7.80
2022-11-25T19:14:30.470Z,7.80
2022-11-25T19:17:39.642Z,7.80
2022-11-25T19:20:44.559Z,7.80
2022-11-25T19:23:50.395Z,7.80
2022-11-25T19:26:57.875Z,7.70
2022-11-25T19:30:01.968Z,7.70
2022-11-25T19:33:06.611Z,7.60
2022-11-25T19:36:26.682Z,7.60
2022-11-25T19:39:38.489Z,7.60
2022-11-25T19:42:46.432Z,7.60
2022-11-25T19:45:51.543Z,7.60
2022-11-25T19:48:59.331Z,7.50
2022-11-25T19:52:04.438Z,7.50
2022-11-25T19:55:15.551Z,7.30
2022-11-25T19:58:22.547Z,7.30
2022-11-25T20:01:37.007Z,7.40
2022-11-25T20:04:43.324Z,7.40
2022-11-25T20:07:49.058Z,7.40
2022-11-25T20:10:53.904Z,7.40
2022-11-25T20:14:00.440Z,7.40
2022-11-25T20:17:08.277Z,7.40
2022-11-25T20:20:18.164Z,7.40
2022-11-25T20:23:28.305Z,7.30
2022-11-25T20:26:36.559Z,7.30
2022-11-25T20:29:42.246Z,7.30
2022-11-25T20:32:46.460Z,7.20
2022-11-25T20:35:55.179Z,7.20
2022-11-25T20:39:03.675Z,7.20
2022-11-25T20:42:11.402Z,7.10
2022-11-25T20:45:18.960Z,7.10
2022-11-25T20:48:23.664Z,7.10
2022-11-25T20:51:28.342Z,7.10
2022-11-25T20:54:36.241Z,7.00
2022-11-25T20:57:40.576Z,7.00
2022-11-25T21:00:55.562Z,6.90
2022-11-25T21:04:02.581Z,6.90
2022-11-25T21:07:09.013Z,6.90
2022-11-25T21:10:25.907Z,6.80
2022-11-25T21:13:31.519Z,6.60
2022-11-25T21:16:38.461Z,6.60
2022-11-25T21:19:42.217Z,6.60
2022-11-25T21:22:48.610Z,6.50
2022-11-25T21:25:52.820Z,6.50
2022-11-25T21:28:56.626Z,6.50
2022-11-25T21:32:01.555Z,6.50
2022-11-25T21:35:05.487Z,6.50
2022-11-25T21:38:16.414Z,6.40
2022-11-25T21:41:20.734Z,6.40
2022-11-25T21:44:29.809Z,6.40
2022-11-25T21:47:34.321Z,6.30
2022-11-25T21:50:37.491Z,6.30
2022-11-25T21:53:40.867Z,6.20
2022-11-25T21:56:44.700Z,6.20
2022-11-25T21:59:48.679Z,6.10
2022-11-25T22:02:53.324Z,6.10
2022-11-25T22:05:56.827Z,6.00
2022-11-25T22:08:59.961Z,6.00
2022-11-25T22:12:05.118Z,6.00
2022-11-25T22:15:14.084Z,5.90
2022-11-25T22:18:28.496Z,5.90
2022-11-25T22:21:31.637Z,5.80
2022-11-25T22:24:35.308Z,5.80
2022-11-25T22:27:39.464Z,5.80
2022-11-25T22:30:47.529Z,5.70
2022-11-25T22:33:52.421Z,5.70
2022-11-25T22:36:55.549Z,5.70
2022-11-25T22:39:58.648Z,5.70
2022-11-25T22:43:02.002Z,5.60
2022-11-25T22:46:05.904Z,5.60
2022-11-25T22:49:24.993Z,5.50
2022-11-25T22:52:30.848Z,5.40
2022-11-25T22:55:34.783Z,5.40
2022-11-25T22:58:37.879Z,5.40
2022-11-25T23:01:41.358Z,5.40
2022-11-25T23:04:54.744Z,5.50
2022-11-25T23:07:58.083Z,5.40
2022-11-25T23:11:01.273Z,5.40
2022-11-25T23:14:04.375Z,5.30
2022-11-25T23:17:12.485Z,5.30
2022-11-25T23:20:19.790Z,5.30
2022-11-25T23:23:25.316Z,5.20
2022-11-25T23:29:48.956Z,5.10
2022-11-25T23:32:54.452Z,5.10
2022-11-25T23:36:02.503Z,5.10
2022-11-25T23:39:16.123Z,5.10
2022-11-25T23:42:20.815Z,5.00
2022-11-25T23:45:27.058Z,5.10
2022-11-25T23:48:31.852Z,5.00
2022-11-25T23:51:37.110Z,5.00
2022-11-25T23:54:43.534Z,4.90
2022-11-25T23:57:48.997Z,4.90
